Hlavní strana
METAR-TAF:

METAR-TAF

Letiště :

Aviano, Itálie

Letecká základna Aviano

zeměpisná šířka: 46-02N, zeměpisná délka: 012-36E, výška: 128 m

Aktuální stav počasí

Zpráva byla vytvořena před 20 hodinami a 37 minutami, v 14:55 UTC
Jižní vítr 3 kt
Teplota 6°C
Vlhkost vzduchu 56%
Tlak 1008 hPa
Viditelnost 10 km a více
Skoro jasno ve výšce 7000 ft
Oblačno až skoro zataženo ve výšce 12000 ft

METAR: LIPA 201455Z 17003KT 9999 FEW070 BKN120 06/M02 Q1008 RMK BKN VIS MIN 9999 WIND THR05 /////KT WIND THR23 /////KT A2978 BLU

Čas: 12:32 (11:32 UTC)

Předpověď počasí

Zpráva byla vytvořena před 21 hodinami a 32 minutami, v 14:00 UTC
Předpověď platná od 20 v 15 UTC do 20 v 24 UTC
vítr z různých směrů 3 kt
Viditelnost 10 km a více
Oblačno až skoro zataženo ve výšce 7000 ft

TAF: LIPA 201400Z 2015/2024 VRB03KT 9999 BKN070

Stav a předpovědi počasí z více než 4 000 letišť (zprávy METAR a TAF).

Červené a žluté tečky na mapě představují dostupné meteorologické stanice.

Když kurzor umístíte na tečku, zobrazí se název stanice.

Pak kliknutím zobrazíte stav a předpověď počasí.

Chcete-li změnit mapu, kliknutím na zelené tlačítko se znaménkem +mapu přiblížíte, kliknutím na zelené tlačítko se znaménkem – mapu oddálíte a kliknutím na zelené šipky přejdete na sousední mapy.


METAR-TAF: